Time;durP1;ratioP1;P1;durP2;ratioP2;P2;SDS_P1;SDS_P2;PMS_P1;PMS_P2;Temp;Humidity;BMP_temperature;BMP_pressure;BME280_temperature;BME280_humidity;BME280_pressure;Samples;Min_cycle;Max_cycle;Signal;HPM_P1;HPM_P2
2022/07/23 00:00:07;;;;;;;7.55;3.10;;;15.10;99.90;;;;;;5030519;28;20041;-94
2022/07/23 00:02:33;;;;;;;4.38;2.45;;;15.10;99.90;;;;;;5046639;28;20018;-95
2022/07/23 00:04:59;;;;;;;5.88;2.30;;;15.10;99.90;;;;;;5027016;28;20037;-96
2022/07/23 00:07:24;;;;;;;5.90;2.30;;;15.10;99.90;;;;;;5024183;28;20036;-95
2022/07/23 00:09:50;;;;;;;7.35;2.47;;;15.10;99.90;;;;;;5027243;28;20036;-92
2022/07/23 00:12:16;;;;;;;7.80;2.63;;;15.10;99.90;;;;;;5036760;28;20030;-95
2022/07/23 00:14:41;;;;;;;2.40;2.10;;;15.00;99.90;;;;;;5039526;28;20052;-91
2022/07/23 00:17:07;;;;;;;6.85;2.42;;;15.10;99.90;;;;;;5041798;28;20040;-90
2022/07/23 00:19:33;;;;;;;4.38;2.35;;;15.00;99.90;;;;;;5042677;28;20058;-92
2022/07/23 00:21:58;;;;;;;5.43;2.25;;;15.00;99.90;;;;;;5039140;28;20021;-95
2022/07/23 00:24:27;;;;;;;8.40;2.50;;;15.00;99.90;;;;;;5039487;28;20040;-94
2022/07/23 00:26:53;;;;;;;4.97;2.63;;;15.00;99.90;;;;;;5038273;28;20129;-93
2022/07/23 00:29:18;;;;;;;4.82;2.60;;;15.00;99.90;;;;;;5035298;28;20410;-94
2022/07/23 00:31:44;;;;;;;5.18;2.75;;;14.90;99.90;;;;;;5032564;28;20018;-95
2022/07/23 00:34:10;;;;;;;6.18;2.60;;;14.90;99.90;;;;;;5033776;28;20083;-96
2022/07/23 00:36:36;;;;;;;5.68;2.40;;;14.80;99.90;;;;;;5035396;28;20045;-95
2022/07/23 00:39:02;;;;;;;5.85;2.50;;;14.80;99.90;;;;;;5036221;28;20033;-95
2022/07/23 00:41:27;;;;;;;6.63;2.50;;;14.80;99.90;;;;;;5034918;28;20026;-94
2022/07/23 00:43:53;;;;;;;6.03;2.25;;;14.80;99.90;;;;;;5038281;28;20075;-91
2022/07/23 00:46:22;;;;;;;7.03;2.30;;;14.80;99.90;;;;;;5027645;28;20025;-94
2022/07/23 00:48:48;;;;;;;5.30;2.78;;;14.80;99.90;;;;;;5023222;28;20022;-94
2022/07/23 00:51:19;;;;;;;7.82;3.20;;;14.80;99.90;;;;;;5026482;28;20056;-95
2022/07/23 00:53:45;;;;;;;4.55;2.60;;;14.70;99.90;;;;;;5028298;28;20017;-93
2022/07/23 00:56:11;;;;;;;7.43;2.90;;;14.70;99.90;;;;;;5026239;28;20030;-94
2022/07/23 00:58:41;;;;;;;11.85;3.05;;;14.70;99.90;;;;;;5023803;28;20026;-95
2022/07/23 01:01:07;;;;;;;4.95;2.95;;;14.70;99.90;;;;;;5025115;28;20053;-94
2022/07/23 01:03:33;;;;;;;5.28;2.47;;;14.70;99.90;;;;;;5025989;28;20064;-96
2022/07/23 01:05:59;;;;;;;8.65;2.60;;;14.70;99.90;;;;;;5029921;28;20089;-95
2022/07/23 01:08:25;;;;;;;4.47;2.85;;;14.60;99.90;;;;;;5057601;28;20021;-96
2022/07/23 01:10:51;;;;;;;5.28;2.72;;;14.60;99.90;;;;;;5027814;28;20025;-96
2022/07/23 01:13:17;;;;;;;8.80;2.95;;;14.60;99.90;;;;;;5028225;28;20018;-95
2022/07/23 01:15:42;;;;;;;8.45;3.20;;;14.60;99.90;;;;;;5029596;28;20045;-96
2022/07/23 01:18:08;;;;;;;8.05;3.38;;;14.60;99.90;;;;;;5032607;28;20072;-96
2022/07/23 01:20:35;;;;;;;4.85;2.90;;;14.60;99.90;;;;;;5034736;28;20018;-94
2022/07/23 01:23:01;;;;;;;3.80;3.00;;;14.60;99.90;;;;;;5030766;28;20013;-90
2022/07/23 01:25:27;;;;;;;7.05;2.90;;;14.60;99.90;;;;;;5037682;28;20104;-92
2022/07/23 01:27:54;;;;;;;10.23;3.08;;;14.60;99.90;;;;;;5041380;28;20057;-92
2022/07/23 01:30:20;;;;;;;10.35;3.40;;;14.50;99.90;;;;;;5041185;28;20029;-92
2022/07/23 01:32:46;;;;;;;8.00;3.10;;;14.60;99.90;;;;;;5038053;28;20025;-95
2022/07/23 01:35:13;;;;;;;8.68;2.53;;;14.60;99.90;;;;;;5027675;28;20136;-95
2022/07/23 01:37:39;;;;;;;7.60;3.38;;;14.50;99.90;;;;;;5040059;28;20048;-92
2022/07/23 01:40:07;;;;;;;7.28;3.25;;;14.60;99.90;;;;;;5024341;28;20017;-96
2022/07/23 01:42:32;;;;;;;6.38;3.10;;;14.60;99.90;;;;;;5036747;28;20029;-92
2022/07/23 01:44:58;;;;;;;8.98;3.90;;;14.60;99.90;;;;;;5038523;28;20024;-94
2022/07/23 01:47:25;;;;;;;10.30;3.03;;;14.60;99.90;;;;;;5040908;28;20016;-92
2022/07/23 01:49:51;;;;;;;5.93;3.53;;;14.60;99.90;;;;;;5040827;28;20025;-92
2022/07/23 01:52:17;;;;;;;7.90;3.35;;;14.60;99.90;;;;;;5057069;28;20048;-92
2022/07/23 01:54:42;;;;;;;5.97;3.05;;;14.60;99.90;;;;;;5040996;28;20046;-90
2022/07/23 01:57:08;;;;;;;11.73;3.00;;;14.50;99.90;;;;;;5040599;28;20029;-89
2022/07/23 01:59:34;;;;;;;7.28;3.33;;;14.50;99.90;;;;;;5040756;28;20052;-89
2022/07/23 02:02:00;;;;;;;8.50;3.47;;;14.50;99.90;;;;;;5040269;28;20030;-94
2022/07/23 02:04:26;;;;;;;5.88;2.85;;;14.50;99.90;;;;;;5035081;28;20044;-95
2022/07/23 02:06:52;;;;;;;6.88;3.00;;;14.50;99.90;;;;;;5035635;28;20030;-94
2022/07/23 02:09:18;;;;;;;5.68;2.92;;;14.50;99.90;;;;;;5031564;28;20057;-96
2022/07/23 02:11:44;;;;;;;4.15;2.38;;;14.50;99.90;;;;;;5028594;28;20029;-96
2022/07/23 02:14:09;;;;;;;5.63;3.22;;;14.50;99.90;;;;;;5027928;28;20037;-94
2022/07/23 02:16:35;;;;;;;8.32;3.67;;;14.40;99.90;;;;;;5033016;28;20112;-93
2022/07/23 02:19:02;;;;;;;5.35;3.33;;;14.40;99.90;;;;;;5030268;28;20030;-96
2022/07/23 02:21:27;;;;;;;7.15;3.50;;;14.50;99.90;;;;;;5030655;28;20035;-94
2022/07/23 02:23:53;;;;;;;7.28;3.20;;;14.50;99.90;;;;;;5028333;28;20113;-95
2022/07/23 02:26:19;;;;;;;8.15;3.30;;;14.50;99.90;;;;;;5024885;28;20034;-96
2022/07/23 02:28:44;;;;;;;9.35;3.13;;;14.50;99.90;;;;;;5026664;28;20049;-94
2022/07/23 02:31:10;;;;;;;5.25;2.83;;;14.50;99.90;;;;;;5023082;28;20029;-94
2022/07/23 02:33:36;;;;;;;6.72;3.20;;;14.50;99.90;;;;;;5023150;28;20060;-93
2022/07/23 02:36:01;;;;;;;5.05;3.15;;;14.50;99.90;;;;;;5024449;28;20018;-94
2022/07/23 02:38:28;;;;;;;4.63;2.78;;;14.40;99.90;;;;;;5027045;28;20037;-96
2022/07/23 02:40:53;;;;;;;9.23;3.35;;;14.40;99.90;;;;;;5029818;28;20012;-95
2022/07/23 02:43:19;;;;;;;4.15;2.92;;;14.40;99.90;;;;;;5037415;28;20025;-94
2022/07/23 02:45:45;;;;;;;6.68;3.22;;;14.40;99.90;;;;;;5031900;28;20052;-94
2022/07/23 02:48:12;;;;;;;6.70;3.30;;;14.30;99.90;;;;;;5021698;28;20025;-95
2022/07/23 02:50:38;;;;;;;6.00;3.22;;;14.30;99.90;;;;;;5021669;28;20033;-94
2022/07/23 02:53:04;;;;;;;8.05;3.45;;;14.20;99.90;;;;;;5022042;28;20044;-95
2022/07/23 02:55:31;;;;;;;5.78;3.35;;;14.20;99.90;;;;;;5021848;28;20082;-95
2022/07/23 02:57:57;;;;;;;6.53;3.65;;;14.10;99.90;;;;;;5020745;28;20032;-95
2022/07/23 03:00:22;;;;;;;5.80;2.90;;;14.10;99.90;;;;;;5021298;28;20022;-95
2022/07/23 03:02:48;;;;;;;7.60;3.58;;;14.10;99.90;;;;;;5022642;28;20029;-94
2022/07/23 03:05:14;;;;;;;8.30;4.05;;;14.10;99.90;;;;;;5025972;28;20474;-95
2022/07/23 03:07:40;;;;;;;4.85;3.85;;;14.10;99.90;;;;;;5023330;28;20040;-96
2022/07/23 03:10:06;;;;;;;9.13;3.55;;;14.10;99.90;;;;;;5023149;28;20129;-96
2022/07/23 03:12:31;;;;;;;11.73;3.70;;;14.00;99.90;;;;;;5023289;28;20029;-95
2022/07/23 03:14:57;;;;;;;7.47;3.85;;;14.00;99.90;;;;;;5023217;28;20078;-96
2022/07/23 03:17:23;;;;;;;7.28;4.03;;;14.00;99.90;;;;;;5022511;28;20025;-95
2022/07/23 03:19:48;;;;;;;8.70;4.15;;;14.00;99.90;;;;;;5022267;28;20029;-95
2022/07/23 03:22:14;;;;;;;6.90;3.60;;;14.00;99.90;;;;;;5020662;28;20112;-94
2022/07/23 03:24:55;;;;;;;8.77;3.72;;;14.00;99.90;;;;;;5020270;28;20052;-94
2022/07/23 03:27:25;;;;;;;8.73;3.63;;;13.90;99.90;;;;;;5020080;28;20061;-95
2022/07/23 03:29:53;;;;;;;7.97;4.35;;;14.00;99.90;;;;;;5019765;28;20040;-94
2022/07/23 03:32:19;;;;;;;7.20;4.20;;;14.00;99.90;;;;;;5021440;28;20034;-95
2022/07/23 03:34:45;;;;;;;6.25;4.00;;;14.00;99.90;;;;;;5019252;28;20107;-95
2022/07/23 03:37:11;;;;;;;9.48;4.60;;;13.90;99.90;;;;;;5026518;28;20029;-93
2022/07/23 03:39:36;;;;;;;6.10;3.35;;;13.90;99.90;;;;;;5039893;28;20045;-93
2022/07/23 03:42:02;;;;;;;10.80;4.05;;;13.90;99.90;;;;;;5029450;28;20112;-95
2022/07/23 03:44:28;;;;;;;9.25;4.22;;;14.00;99.90;;;;;;5028080;28;20037;-95
2022/07/23 03:46:54;;;;;;;9.07;3.83;;;13.90;99.90;;;;;;5025880;28;20056;-95
2022/07/23 03:49:20;;;;;;;6.57;3.85;;;13.90;99.90;;;;;;5026550;28;20044;-95
2022/07/23 03:51:45;;;;;;;8.57;5.10;;;13.90;99.90;;;;;;5025657;28;20079;-95
2022/07/23 03:54:11;;;;;;;14.50;4.32;;;13.90;99.90;;;;;;5022207;28;20028;-94
2022/07/23 03:56:37;;;;;;;6.78;4.22;;;13.90;99.90;;;;;;5024162;28;20475;-96
2022/07/23 03:59:02;;;;;;;6.60;4.30;;;13.90;99.90;;;;;;5022182;28;20479;-94
2022/07/23 04:01:28;;;;;;;8.35;4.20;;;13.90;99.90;;;;;;5022278;28;20041;-93
2022/07/23 04:03:54;;;;;;;7.28;4.00;;;13.90;99.90;;;;;;5022120;28;20071;-94
2022/07/23 04:06:20;;;;;;;9.38;4.15;;;13.80;99.90;;;;;;5021354;28;20033;-94
2022/07/23 04:08:45;;;;;;;8.63;4.35;;;13.80;99.90;;;;;;5020972;28;20064;-95
2022/07/23 04:11:11;;;;;;;13.40;4.22;;;13.80;99.90;;;;;;5022936;28;20375;-96
2022/07/23 04:13:37;;;;;;;9.88;4.43;;;13.80;99.90;;;;;;5040448;28;20076;-94
2022/07/23 04:16:03;;;;;;;5.47;4.10;;;13.80;99.90;;;;;;5023492;28;20029;-95
2022/07/23 04:18:29;;;;;;;9.60;4.88;;;13.80;99.90;;;;;;5025133;28;20025;-96
2022/07/23 04:20:55;;;;;;;13.88;5.55;;;13.80;99.90;;;;;;5023127;28;20364;-96
2022/07/23 04:23:21;;;;;;;9.18;4.70;;;13.80;99.90;;;;;;5022070;28;20033;-95
2022/07/23 04:25:47;;;;;;;7.03;4.70;;;13.70;99.90;;;;;;5022588;28;20033;-96
2022/07/23 04:28:12;;;;;;;9.57;4.57;;;13.70;99.90;;;;;;5019906;28;20107;-93
2022/07/23 04:30:38;;;;;;;9.52;5.53;;;13.70;99.90;;;;;;5021091;28;20033;-94
2022/07/23 04:33:07;;;;;;;8.88;4.57;;;13.70;99.90;;;;;;5019738;28;20088;-96
2022/07/23 04:35:34;;;;;;;11.20;5.88;;;13.70;99.90;;;;;;5020155;28;20045;-94
2022/07/23 04:37:59;;;;;;;9.80;5.70;;;13.60;99.90;;;;;;5021627;28;20036;-96
2022/07/23 04:40:26;;;;;;;13.88;5.90;;;13.60;99.90;;;;;;5020953;28;20026;-95
2022/07/23 04:42:52;;;;;;;8.88;5.15;;;13.60;99.90;;;;;;5021522;28;20407;-96
2022/07/23 04:45:17;;;;;;;8.93;4.97;;;13.60;99.90;;;;;;5043225;28;20042;-96
2022/07/23 04:47:43;;;;;;;9.43;4.47;;;13.60;99.90;;;;;;5024858;28;20029;-94
2022/07/23 04:50:09;;;;;;;12.35;5.72;;;13.50;99.90;;;;;;5031833;28;20021;-95
2022/07/23 04:52:35;;;;;;;7.00;4.57;;;13.50;99.90;;;;;;5031847;28;20032;-94
2022/07/23 04:55:00;;;;;;;11.30;5.00;;;13.50;99.90;;;;;;5031814;28;20064;-94
2022/07/23 04:57:26;;;;;;;8.07;4.78;;;13.50;99.90;;;;;;5029593;28;20109;-94
2022/07/23 04:59:52;;;;;;;7.30;4.57;;;13.50;99.90;;;;;;5028334;28;20022;-95
2022/07/23 05:02:18;;;;;;;10.27;5.30;;;13.50;99.90;;;;;;5028900;28;20032;-96
2022/07/23 05:04:43;;;;;;;7.78;5.53;;;13.50;99.90;;;;;;5025329;28;20133;-96
2022/07/23 05:07:09;;;;;;;10.18;4.90;;;13.50;99.90;;;;;;5024108;28;20021;-96
2022/07/23 05:09:35;;;;;;;7.50;5.13;;;13.50;99.90;;;;;;5024209;28;20036;-95
2022/07/23 05:12:01;;;;;;;8.07;5.18;;;13.50;99.90;;;;;;5030489;28;20068;-96
2022/07/23 05:14:27;;;;;;;13.07;7.07;;;13.50;99.90;;;;;;5025953;28;20021;-96
2022/07/23 05:16:53;;;;;;;12.25;6.93;;;13.50;99.90;;;;;;5027093;28;20032;-93
2022/07/23 05:19:19;;;;;;;22.55;9.60;;;13.60;99.90;;;;;;5038682;28;20009;-93
2022/07/23 05:21:44;;;;;;;20.75;9.63;;;13.60;99.90;;;;;;5026182;28;20034;-95
2022/07/23 05:24:11;;;;;;;15.40;9.95;;;13.60;99.90;;;;;;5022669;28;20515;-94
2022/07/23 05:26:36;;;;;;;20.38;9.88;;;13.70;99.90;;;;;;5024297;28;20483;-94
2022/07/23 05:29:02;;;;;;;15.60;9.30;;;13.60;99.90;;;;;;5022793;28;20409;-95
2022/07/23 05:31:28;;;;;;;17.25;9.10;;;13.70;99.90;;;;;;5021897;28;20033;-95
2022/07/23 05:33:54;;;;;;;14.55;8.63;;;13.70;99.90;;;;;;5018539;28;20048;-95
2022/07/23 05:36:19;;;;;;;14.63;8.43;;;13.70;99.90;;;;;;5019298;28;20024;-95
2022/07/23 05:38:45;;;;;;;15.38;7.07;;;13.70;99.90;;;;;;5021955;28;20029;-94
2022/07/23 05:41:11;;;;;;;19.23;9.13;;;13.80;99.90;;;;;;5021120;28;20040;-93
2022/07/23 05:43:36;;;;;;;16.98;9.30;;;13.80;99.90;;;;;;5039439;28;20032;-94
2022/07/23 05:46:02;;;;;;;25.40;9.90;;;13.80;99.90;;;;;;5038229;28;20124;-95
2022/07/23 05:48:28;;;;;;;20.92;10.48;;;13.70;99.90;;;;;;5021080;28;20032;-95
2022/07/23 05:50:54;;;;;;;22.35;11.60;;;13.80;99.90;;;;;;5023562;28;20029;-95
2022/07/23 05:53:19;;;;;;;31.38;12.15;;;13.80;99.90;;;;;;5027194;28;20048;-95
2022/07/23 05:55:45;;;;;;;25.52;12.32;;;13.80;99.90;;;;;;5022792;28;20025;-95
2022/07/23 05:58:11;;;;;;;23.20;12.90;;;13.80;99.90;;;;;;5039267;28;20037;-96
2022/07/23 06:00:37;;;;;;;25.20;13.13;;;13.80;99.90;;;;;;5018320;28;20116;-96
2022/07/23 06:03:02;;;;;;;23.40;12.90;;;13.80;99.90;;;;;;5022191;28;20026;-95
2022/07/23 06:05:28;;;;;;;32.95;14.68;;;13.90;99.90;;;;;;5025227;28;20080;-94
2022/07/23 06:07:54;;;;;;;24.95;14.40;;;13.90;99.90;;;;;;5034266;28;20014;-93
2022/07/23 06:10:20;;;;;;;24.83;13.93;;;13.90;99.90;;;;;;5033058;28;20025;-94
2022/07/23 06:12:46;;;;;;;27.77;13.00;;;13.90;99.90;;;;;;5029239;28;20021;-95
2022/07/23 06:15:12;;;;;;;27.33;14.05;;;13.90;99.90;;;;;;5024204;28;20061;-96
2022/07/23 06:17:39;;;;;;;26.98;14.25;;;14.00;99.90;;;;;;5030633;28;20021;-95
2022/07/23 06:20:08;;;;;;;30.00;14.90;;;14.10;99.90;;;;;;5052853;28;20109;-92
2022/07/23 06:22:34;;;;;;;32.95;14.93;;;14.10;99.90;;;;;;5032430;28;20076;-95
2022/07/23 06:25:00;;;;;;;31.38;15.32;;;14.20;99.90;;;;;;5049087;28;20034;-94
2022/07/23 06:27:26;;;;;;;24.98;14.98;;;14.30;99.90;;;;;;5033849;28;20109;-95
2022/07/23 06:29:52;;;;;;;28.88;15.77;;;14.40;99.90;;;;;;5031766;28;20068;-93
2022/07/23 06:32:18;;;;;;;31.13;14.98;;;14.50;99.90;;;;;;5029589;28;20040;-94
2022/07/23 06:34:44;;;;;;;28.75;16.13;;;14.60;99.90;;;;;;5035513;28;20018;-93
2022/07/23 06:37:10;;;;;;;31.10;15.20;;;14.70;99.90;;;;;;5029184;28;20026;-95
2022/07/23 06:39:35;;;;;;;28.10;15.32;;;14.70;99.90;;;;;;5031528;28;20035;-94
2022/07/23 06:42:01;;;;;;;24.90;14.02;;;14.80;99.90;;;;;;5031010;28;20128;-95
2022/07/23 06:44:27;;;;;;;27.83;15.50;;;14.90;99.90;;;;;;5028225;28;20025;-94
2022/07/23 06:46:53;;;;;;;31.45;15.20;;;14.90;99.90;;;;;;5033360;28;20042;-95
2022/07/23 06:49:19;;;;;;;23.58;14.10;;;15.00;99.90;;;;;;5031724;28;20033;-95
2022/07/23 06:51:45;;;;;;;31.02;16.63;;;15.00;99.90;;;;;;5030554;28;20075;-94
2022/07/23 06:54:11;;;;;;;23.13;12.43;;;15.10;99.90;;;;;;5011895;28;20036;-95
2022/07/23 06:56:37;;;;;;;27.23;14.98;;;15.10;99.90;;;;;;5028043;28;20030;-95
2022/07/23 06:59:03;;;;;;;24.85;14.35;;;15.20;99.90;;;;;;5029700;28;20079;-93
2022/07/23 07:01:30;;;;;;;24.95;13.30;;;15.30;99.90;;;;;;5036101;28;20037;-92
2022/07/23 07:03:56;;;;;;;21.65;13.57;;;15.30;99.90;;;;;;5040020;28;20029;-96
2022/07/23 07:06:22;;;;;;;26.25;14.15;;;15.40;99.90;;;;;;5036910;28;20037;-94
2022/07/23 07:08:47;;;;;;;26.83;13.38;;;15.50;99.90;;;;;;5031335;28;20079;-95
2022/07/23 07:11:13;;;;;;;20.92;12.80;;;15.50;99.90;;;;;;5032621;28;20025;-95
2022/07/23 07:13:39;;;;;;;23.75;12.77;;;15.60;99.90;;;;;;5037511;28;20056;-95
2022/07/23 07:16:05;;;;;;;22.63;12.77;;;15.60;99.90;;;;;;5033564;28;20033;-96
2022/07/23 07:18:32;;;;;;;21.60;12.38;;;15.70;99.90;;;;;;5036194;28;20037;-95
2022/07/23 07:20:58;;;;;;;22.73;12.77;;;15.80;99.90;;;;;;5034833;28;20029;-96
2022/07/23 07:23:23;;;;;;;25.00;13.65;;;15.80;99.90;;;;;;5034868;28;20126;-95
2022/07/23 07:25:50;;;;;;;26.25;13.35;;;15.90;99.90;;;;;;5054224;28;20041;-93
2022/07/23 07:28:15;;;;;;;30.00;14.00;;;16.00;99.90;;;;;;5038036;28;20064;-93
2022/07/23 07:30:41;;;;;;;22.15;12.57;;;16.10;99.90;;;;;;5034517;28;20101;-95
2022/07/23 07:33:07;;;;;;;26.55;13.18;;;16.20;99.90;;;;;;5033929;28;20017;-94
2022/07/23 07:35:33;;;;;;;27.67;14.30;;;16.30;99.90;;;;;;5042736;28;20033;-94
2022/07/23 07:38:00;;;;;;;25.05;13.38;;;16.40;99.90;;;;;;5038446;28;20022;-90
2022/07/23 07:40:26;;;;;;;25.67;14.27;;;16.40;99.90;;;;;;5039597;28;20037;-93
2022/07/23 07:42:53;;;;;;;24.13;12.30;;;16.50;99.90;;;;;;5041522;28;20033;-92
2022/07/23 07:45:24;;;;;;;24.65;12.93;;;16.60;99.90;;;;;;5041155;28;20041;-94
2022/07/23 07:47:51;;;;;;;23.60;13.25;;;16.70;99.90;;;;;;5038829;28;20030;-95
2022/07/23 07:50:17;;;;;;;25.25;13.85;;;16.70;99.90;;;;;;5029846;28;20041;-95
2022/07/23 07:52:42;;;;;;;27.23;13.52;;;16.80;99.90;;;;;;5030706;28;20034;-93
2022/07/23 07:55:09;;;;;;;24.63;14.20;;;16.90;99.90;;;;;;5035104;28;20113;-94
2022/07/23 07:57:36;;;;;;;22.50;11.98;;;17.00;99.90;;;;;;5039800;28;20041;-94
2022/07/23 08:00:03;;;;;;;36.65;9.60;;;17.10;99.90;;;;;;5039379;28;20064;-94
2022/07/23 08:02:38;;;;;;;27.92;13.38;;;17.20;99.90;;;;;;5039534;28;20014;-94
2022/07/23 08:05:04;;;;;;;26.08;11.93;;;17.30;99.90;;;;;;5041925;28;20064;-93
2022/07/23 08:07:30;;;;;;;25.23;10.57;;;17.30;99.90;;;;;;5040760;28;20021;-92
2022/07/23 08:09:56;;;;;;;25.25;11.13;;;17.40;99.90;;;;;;5041019;28;20010;-93
2022/07/23 08:12:21;;;;;;;23.13;11.57;;;17.60;99.90;;;;;;5038689;28;20291;-94
2022/07/23 08:14:47;;;;;;;19.23;11.77;;;17.70;99.90;;;;;;5036085;28;20037;-94
2022/07/23 08:17:13;;;;;;;24.90;11.13;;;17.80;99.90;;;;;;5020835;28;20030;-95
2022/07/23 08:19:38;;;;;;;28.63;11.57;;;17.80;99.90;;;;;;5020193;28;20029;-92
2022/07/23 08:22:05;;;;;;;19.70;10.05;;;17.90;99.90;;;;;;5034187;28;20026;-90
2022/07/23 08:24:31;;;;;;;15.88;9.40;;;17.90;99.90;;;;;;5034322;28;20045;-93
2022/07/23 08:26:57;;;;;;;22.65;9.88;;;17.90;99.90;;;;;;5026177;28;20091;-93
2022/07/23 08:29:22;;;;;;;16.15;10.15;;;18.00;99.90;;;;;;5023608;28;20049;-93
2022/07/23 08:31:49;;;;;;;17.55;10.00;;;18.10;99.90;;;;;;5019499;28;20064;-90
2022/07/23 08:34:15;;;;;;;18.38;10.60;;;18.20;99.90;;;;;;5029888;28;20014;-95
2022/07/23 08:36:40;;;;;;;23.48;12.15;;;18.20;99.90;;;;;;5028211;28;20017;-95
2022/07/23 08:39:06;;;;;;;22.70;10.95;;;18.20;99.90;;;;;;5026689;28;20041;-95
2022/07/23 08:41:33;;;;;;;15.70;9.13;;;18.20;99.90;;;;;;5039096;28;20030;-95
2022/07/23 08:44:00;;;;;;;19.27;9.77;;;18.30;99.90;;;;;;5038919;28;20056;-94
2022/07/23 08:46:27;;;;;;;22.58;10.93;;;18.30;99.90;;;;;;5016189;28;20037;-96
2022/07/23 08:48:55;;;;;;;23.15;11.73;;;18.40;99.90;;;;;;5016316;28;20132;-94
2022/07/23 08:51:25;;;;;;;19.45;11.45;;;18.40;99.90;;;;;;5018529;28;20029;-94
2022/07/23 08:53:52;;;;;;;19.52;11.13;;;18.40;99.90;;;;;;5019640;28;20113;-95
2022/07/23 08:56:18;;;;;;;19.80;10.80;;;18.40;99.90;;;;;;5027033;28;20022;-93
2022/07/23 08:58:43;;;;;;;20.60;10.32;;;18.50;99.90;;;;;;5022594;28;20402;-95
2022/07/23 09:01:09;;;;;;;20.77;11.43;;;18.50;99.90;;;;;;5022035;28;20478;-94
2022/07/23 09:03:39;;;;;;;18.17;10.82;;;18.50;99.90;;;;;;5035045;28;20060;-91
2022/07/23 09:06:05;;;;;;;25.70;10.55;;;18.50;99.90;;;;;;5035735;28;20105;-93
2022/07/23 09:08:34;;;;;;;20.55;11.30;;;18.50;99.90;;;;;;5039047;28;20024;-92
2022/07/23 09:11:02;;;;;;;17.67;10.52;;;18.50;99.90;;;;;;5034118;28;20039;-93
2022/07/23 09:13:28;;;;;;;21.10;11.07;;;18.50;99.90;;;;;;5038958;28;20229;-89
2022/07/23 09:16:15;;;;;;;20.80;11.07;;;18.50;99.90;;;;;;5057894;28;20021;-91
2022/07/23 09:18:44;;;;;;;21.88;11.32;;;18.60;99.90;;;;;;5028135;28;20024;-90
2022/07/23 09:21:32;;;;;;;17.60;11.02;;;18.60;99.90;;;;;;5040332;28;20021;-90
2022/07/23 09:24:09;;;;;;;19.98;11.52;;;18.70;99.90;;;;;;5038126;28;20104;-89
2022/07/23 09:26:39;;;;;;;19.88;10.23;;;18.80;99.90;;;;;;5040528;28;20041;-89
2022/07/23 09:29:06;;;;;;;16.38;9.38;;;18.90;99.90;;;;;;5040239;28;20056;-88
2022/07/23 09:31:42;;;;;;;15.40;9.13;;;19.00;99.90;;;;;;5040402;28;20093;-90
2022/07/23 09:34:14;;;;;;;15.57;7.78;;;19.10;99.90;;;;;;5040860;28;20121;-89
2022/07/23 09:36:40;;;;;;;16.95;8.32;;;19.20;99.90;;;;;;5038549;28;20033;-90
2022/07/23 09:39:07;;;;;;;14.32;8.52;;;19.30;99.90;;;;;;5040345;28;20107;-90
2022/07/23 09:41:42;;;;;;;15.85;9.20;;;19.30;99.90;;;;;;5040358;28;20056;-88
2022/07/23 09:44:10;;;;;;;18.33;9.02;;;19.40;99.90;;;;;;5040727;28;20014;-90
2022/07/23 09:46:39;;;;;;;13.80;8.48;;;19.30;99.90;;;;;;5055999;28;20013;-89
2022/07/23 09:49:20;;;;;;;11.48;7.75;;;19.40;99.90;;;;;;5058199;28;20081;-90
2022/07/23 09:51:52;;;;;;;17.85;8.80;;;19.40;99.90;;;;;;5051312;28;20018;-89
2022/07/23 09:54:21;;;;;;;16.63;9.20;;;19.50;99.90;;;;;;5037884;28;20032;-91
2022/07/23 09:56:48;;;;;;;17.60;7.88;;;19.50;99.90;;;;;;5039930;28;20029;-90
2022/07/23 09:59:17;;;;;;;15.55;9.60;;;19.60;99.90;;;;;;5039939;28;20037;-91
2022/07/23 10:01:45;;;;;;;16.65;10.02;;;19.70;99.90;;;;;;5040054;28;20081;-89
2022/07/23 10:04:14;;;;;;;16.30;9.15;;;19.90;99.90;;;;;;5039404;28;20044;-90
2022/07/23 10:06:45;;;;;;;16.42;7.68;;;20.00;99.90;;;;;;5045091;28;20013;-90
2022/07/23 10:09:13;;;;;;;13.45;7.93;;;20.00;99.90;;;;;;5056888;28;20029;-89
2022/07/23 10:11:39;;;;;;;9.25;5.15;;;20.00;99.90;;;;;;5038687;28;20012;-88
2022/07/23 10:14:05;;;;;;;8.77;5.55;;;20.10;99.90;;;;;;5040139;28;20037;-90
2022/07/23 10:16:32;;;;;;;9.18;6.10;;;20.10;99.90;;;;;;5039105;28;20026;-91
2022/07/23 10:18:59;;;;;;;9.10;5.60;;;20.20;99.90;;;;;;5056253;28;20009;-95
2022/07/23 10:21:34;;;;;;;7.63;5.03;;;20.20;99.90;;;;;;5039659;28;20028;-88
2022/07/23 10:24:31;;;;;;;12.35;5.25;;;20.30;99.90;;;;;;5036481;28;20030;-91
2022/07/23 10:27:35;;;;;;;12.15;5.45;;;20.40;99.90;;;;;;5038382;28;20036;-88
2022/07/23 10:30:12;;;;;;;10.40;6.35;;;20.50;98.90;;;;;;5035783;28;20017;-89
2022/07/23 10:33:15;;;;;;;11.45;6.28;;;20.50;98.20;;;;;;5039629;28;20044;-88
2022/07/23 10:36:14;;;;;;;10.68;5.30;;;20.50;99.00;;;;;;5048717;28;20041;-95
2022/07/23 10:38:55;;;;;;;7.03;4.35;;;20.60;98.30;;;;;;5052257;28;20022;-94
2022/07/23 10:41:39;;;;;;;6.72;4.25;;;20.70;97.50;;;;;;5035268;28;20113;-91
2022/07/23 10:44:10;;;;;;;7.80;4.32;;;20.80;96.80;;;;;;5056787;28;20014;-94
2022/07/23 10:46:56;;;;;;;9.35;3.53;;;20.90;96.50;;;;;;5035938;28;20049;-95
2022/07/23 10:49:33;;;;;;;7.30;3.20;;;20.90;95.70;;;;;;5027694;28;20089;-96
2022/07/23 10:52:14;;;;;;;7.97;4.15;;;21.00;94.10;;;;;;5028888;28;20033;-96
2022/07/23 10:54:45;;;;;;;8.43;3.88;;;21.10;94.10;;;;;;5027369;28;20101;-90
2022/07/23 10:57:12;;;;;;;8.18;3.67;;;21.30;93.30;;;;;;5030029;28;20025;-96
2022/07/23 11:00:00;;;;;;;6.68;3.67;;;21.30;92.80;;;;;;5025397;28;20033;-96
2022/07/23 11:02:30;;;;;;;10.02;3.80;;;21.40;92.70;;;;;;5026987;28;20022;-96
2022/07/23 11:05:06;;;;;;;6.38;3.40;;;21.30;92.00;;;;;;5019921;28;20030;-93
2022/07/23 11:07:33;;;;;;;7.75;3.78;;;21.20;90.70;;;;;;5016813;28;20026;-95
2022/07/23 11:09:59;;;;;;;8.05;3.13;;;21.00;90.40;;;;;;5016525;28;20033;-96
2022/07/23 11:12:27;;;;;;;6.57;3.38;;;20.90;90.30;;;;;;5017635;28;20095;-95
2022/07/23 11:14:59;;;;;;;6.50;2.65;;;20.80;90.30;;;;;;5017036;28;20026;-95
2022/07/23 11:17:26;;;;;;;8.05;3.72;;;20.80;90.50;;;;;;5014727;28;20021;-95
2022/07/23 11:20:15;;;;;;;7.88;2.80;;;20.70;90.70;;;;;;5015754;28;20088;-95
2022/07/23 11:22:44;;;;;;;5.60;3.13;;;20.60;90.20;;;;;;5008683;28;20033;-96
2022/07/23 11:25:28;;;;;;;5.70;3.10;;;20.40;90.10;;;;;;5018519;28;20041;-96
2022/07/23 11:27:54;;;;;;;5.05;3.17;;;20.40;90.10;;;;;;5020260;28;20127;-95
2022/07/23 11:30:26;;;;;;;7.18;3.17;;;20.30;90.40;;;;;;5020390;28;20113;-96
2022/07/23 11:32:53;;;;;;;7.40;2.50;;;20.30;90.60;;;;;;5023210;28;20025;-95
2022/07/23 11:35:31;;;;;;;7.60;2.22;;;20.20;90.30;;;;;;5024491;28;20041;-96
2022/07/23 11:38:11;;;;;;;10.73;2.67;;;20.20;90.60;;;;;;5021992;28;20059;-95
2022/07/23 11:40:37;;;;;;;4.43;2.63;;;20.20;91.00;;;;;;5023560;28;20033;-95
2022/07/23 11:43:06;;;;;;;3.67;2.75;;;20.20;91.10;;;;;;5040409;28;20026;-94
2022/07/23 11:45:35;;;;;;;6.53;2.80;;;20.20;91.20;;;;;;5040760;28;20029;-94
2022/07/23 11:48:01;;;;;;;7.03;3.20;;;20.10;91.60;;;;;;5038975;28;20017;-92
2022/07/23 11:50:27;;;;;;;5.88;2.50;;;20.10;92.20;;;;;;5028518;28;20029;-96
2022/07/23 11:52:54;;;;;;;5.57;2.78;;;20.20;92.60;;;;;;5020762;28;20018;-95
2022/07/23 11:55:20;;;;;;;7.55;2.63;;;20.20;92.80;;;;;;5019276;28;20049;-95
2022/07/23 11:57:47;;;;;;;4.63;1.70;;;20.10;93.00;;;;;;5021271;28;20029;-94
2022/07/23 12:00:16;;;;;;;4.47;2.25;;;20.10;92.70;;;;;;5022209;28;20044;-93
2022/07/23 12:02:48;;;;;;;3.42;1.95;;;19.90;92.80;;;;;;5028178;28;20044;-95
2022/07/23 12:05:16;;;;;;;3.25;1.90;;;19.90;93.10;;;;;;5036769;28;20179;-96
2022/07/23 12:07:49;;;;;;;4.47;1.50;;;20.00;93.40;;;;;;5018949;28;20026;-96
2022/07/23 12:10:17;;;;;;;3.80;1.80;;;20.00;93.70;;;;;;5018287;28;20033;-94
2022/07/23 12:13:05;;;;;;;4.28;1.70;;;20.00;93.50;;;;;;5017768;28;20017;-96
2022/07/23 12:16:04;;;;;;;4.57;1.88;;;20.00;93.90;;;;;;5018090;28;20091;-95
2022/07/23 12:18:30;;;;;;;4.30;2.25;;;20.00;94.10;;;;;;4986602;28;20041;-95
2022/07/23 12:21:02;;;;;;;6.10;2.20;;;19.80;94.60;;;;;;5022821;28;20025;-94
2022/07/23 12:23:28;;;;;;;2.50;2.00;;;19.70;95.60;;;;;;5027451;28;20017;-95
2022/07/23 12:25:54;;;;;;;5.07;1.98;;;19.60;96.20;;;;;;5018276;28;20043;-95
2022/07/23 12:28:26;;;;;;;4.90;2.05;;;19.60;97.00;;;;;;5018006;28;20041;-95
2022/07/23 12:30:53;;;;;;;2.17;1.98;;;19.60;97.60;;;;;;5018874;28;20033;-95
2022/07/23 12:33:26;;;;;;;3.38;1.85;;;19.60;98.10;;;;;;5017767;28;20029;-96
2022/07/23 12:35:54;;;;;;;5.28;1.77;;;19.60;98.60;;;;;;5019965;28;20033;-94
2022/07/23 12:38:22;;;;;;;3.45;1.88;;;19.50;98.70;;;;;;5019821;28;20478;-95
2022/07/23 12:40:53;;;;;;;3.92;1.85;;;19.60;99.20;;;;;;5019381;28;20093;-94
2022/07/23 12:43:22;;;;;;;4.35;1.77;;;19.50;99.80;;;;;;5040679;28;20051;-95